createdAt,value
2022-11-23T00:01:26.487Z,77209.19
2022-11-23T00:03:57.181Z,77209.19
2022-11-23T00:06:25.608Z,77209.19
2022-11-23T00:08:53.674Z,77213.25
2022-11-23T00:11:22.117Z,77209.19
2022-11-23T00:13:49.842Z,77201.06
2022-11-23T00:16:20.058Z,77201.06
2022-11-23T00:18:47.953Z,77197.03
2022-11-23T00:21:16.587Z,77192.97
2022-11-23T00:23:45.020Z,77192.97
2022-11-23T00:26:13.361Z,77192.97
2022-11-23T00:28:42.132Z,77192.97
2022-11-23T00:31:11.406Z,77192.97
2022-11-23T00:33:39.244Z,77195.00
2022-11-23T00:36:10.425Z,77192.97
2022-11-23T00:38:37.648Z,77201.06
2022-11-23T00:41:08.259Z,77205.13
2022-11-23T00:43:36.525Z,77209.19
2022-11-23T00:46:12.540Z,77205.13
2022-11-23T00:48:41.163Z,77209.19
2022-11-23T00:51:10.229Z,77209.19
2022-11-23T00:53:38.113Z,77205.13
2022-11-23T00:56:06.533Z,77205.13
2022-11-23T00:58:34.775Z,77209.19
2022-11-23T01:01:06.909Z,77209.19
2022-11-23T01:03:37.205Z,77205.13
2022-11-23T01:06:10.132Z,77209.19
2022-11-23T01:08:37.939Z,77209.19
2022-11-23T01:11:07.680Z,77205.13
2022-11-23T01:13:38.163Z,77201.06
2022-11-23T01:16:07.650Z,77205.13
2022-11-23T01:18:36.728Z,77207.16
2022-11-23T01:21:03.611Z,77205.13
2022-11-23T01:23:31.556Z,77201.06
2022-11-23T01:26:04.575Z,77209.19
2022-11-23T01:28:31.738Z,77209.19
2022-11-23T01:31:15.739Z,77205.13
2022-11-23T01:33:45.393Z,77217.28
2022-11-23T01:36:18.269Z,77209.19
2022-11-23T01:38:47.137Z,77209.19
2022-11-23T01:41:35.880Z,77197.03
2022-11-23T01:44:24.830Z,77199.06
2022-11-23T01:46:57.666Z,77209.19
2022-11-23T01:49:27.330Z,77211.22
2022-11-23T01:51:59.530Z,77209.19
2022-11-23T01:54:36.464Z,77209.19
2022-11-23T01:57:13.748Z,77209.19
2022-11-23T01:59:40.970Z,77209.19
2022-11-23T02:02:07.808Z,77213.25
2022-11-23T02:04:39.932Z,77209.19
2022-11-23T02:07:07.194Z,77213.25
2022-11-23T02:09:35.774Z,77217.28
2022-11-23T02:12:02.618Z,77217.28
2022-11-23T02:14:30.039Z,77217.28
2022-11-23T02:16:59.940Z,77213.25
2022-11-23T02:19:48.893Z,77237.56
2022-11-23T02:22:25.360Z,77233.53
2022-11-23T02:24:55.213Z,77241.63
2022-11-23T02:27:26.293Z,77245.69
2022-11-23T02:29:55.296Z,77239.59
2022-11-23T02:32:24.840Z,77249.75
2022-11-23T02:34:56.362Z,77241.63
2022-11-23T02:37:23.620Z,77253.78
2022-11-23T02:39:54.294Z,77265.97
2022-11-23T02:42:21.292Z,77261.91
2022-11-23T02:45:03.624Z,77270.00
2022-11-23T02:47:30.994Z,77270.00
2022-11-23T02:49:58.332Z,77263.94
2022-11-23T02:52:25.197Z,77257.84
2022-11-23T02:54:52.435Z,77259.88
2022-11-23T02:57:19.257Z,77253.78
2022-11-23T02:59:47.062Z,77253.78
2022-11-23T03:02:13.975Z,77245.69
2022-11-23T03:04:41.190Z,77251.75
2022-11-23T03:07:08.120Z,77253.78
2022-11-23T03:09:35.932Z,77257.84
2022-11-23T03:12:03.060Z,77261.91
2022-11-23T03:14:30.242Z,77261.91
2022-11-23T03:17:01.159Z,77257.84
2022-11-23T03:19:33.228Z,77253.78
2022-11-23T03:22:00.732Z,77253.78
2022-11-23T03:24:31.593Z,77249.75
2022-11-23T03:27:17.885Z,77257.84
2022-11-23T03:29:46.161Z,77253.78
2022-11-23T03:32:18.179Z,77243.66
2022-11-23T03:34:48.851Z,77249.75
2022-11-23T03:37:17.559Z,77251.75
2022-11-23T03:39:47.549Z,77253.78
2022-11-23T03:42:33.294Z,77245.69
2022-11-23T03:45:00.588Z,77245.69
2022-11-23T03:47:27.380Z,77243.66
2022-11-23T03:49:54.462Z,77245.69
2022-11-23T03:52:21.283Z,77259.88
2022-11-23T03:54:48.767Z,77261.91
2022-11-23T03:57:15.986Z,77261.91
2022-11-23T03:59:43.141Z,77265.97
2022-11-23T04:02:10.606Z,77257.84
2022-11-23T04:04:45.780Z,77255.81
2022-11-23T04:07:32.643Z,77259.88
2022-11-23T04:10:04.188Z,77253.78
2022-11-23T04:13:09.232Z,77261.91
2022-11-23T04:15:36.583Z,77261.91
2022-11-23T04:18:03.776Z,77261.91
2022-11-23T04:20:31.415Z,77265.97
2022-11-23T04:22:58.246Z,77278.13
2022-11-23T04:25:27.124Z,77286.22
2022-11-23T04:27:55.175Z,77278.13
2022-11-23T04:30:23.532Z,77278.13
2022-11-23T04:32:53.241Z,77294.34
2022-11-23T04:35:22.491Z,77294.34
2022-11-23T04:37:50.859Z,77290.28
2022-11-23T04:40:18.729Z,77290.28
2022-11-23T04:42:57.593Z,77278.13
2022-11-23T04:45:27.994Z,77278.13
2022-11-23T04:47:57.898Z,77278.13
2022-11-23T04:50:26.385Z,77274.06
2022-11-23T04:52:55.747Z,77282.19
2022-11-23T04:55:29.335Z,77282.19
2022-11-23T04:57:58.260Z,77274.06
2022-11-23T05:00:28.974Z,77278.13
2022-11-23T05:03:01.023Z,77282.19
2022-11-23T05:05:32.425Z,77286.22
2022-11-23T05:08:00.297Z,77286.22
2022-11-23T05:10:39.908Z,77282.19
2022-11-23T05:13:06.994Z,77286.22
2022-11-23T05:15:34.326Z,77296.38
2022-11-23T05:18:03.882Z,77292.31
2022-11-23T05:20:31.009Z,77294.34
2022-11-23T05:22:58.402Z,77290.28
2022-11-23T05:25:27.198Z,77298.41
2022-11-23T05:28:11.412Z,77294.34
2022-11-23T05:30:49.137Z,77310.56
2022-11-23T05:33:16.428Z,77310.56
2022-11-23T05:35:44.420Z,77330.84
2022-11-23T05:38:11.515Z,77322.72
2022-11-23T05:40:39.454Z,77324.75
2022-11-23T05:43:24.858Z,77332.88
2022-11-23T05:45:52.448Z,77330.84
2022-11-23T05:48:20.999Z,77330.84
2022-11-23T05:51:02.303Z,77326.78
2022-11-23T05:53:35.356Z,77318.66
2022-11-23T05:56:16.302Z,77322.72
2022-11-23T05:58:58.319Z,77326.78
2022-11-23T06:01:26.459Z,77332.88
2022-11-23T06:03:57.705Z,77334.91
2022-11-23T06:06:25.497Z,77336.91
2022-11-23T06:08:52.365Z,77338.94
2022-11-23T06:11:20.138Z,77347.06
2022-11-23T06:13:48.170Z,77334.91
2022-11-23T06:16:16.608Z,77322.72
2022-11-23T06:18:56.795Z,77330.84
2022-11-23T06:21:24.010Z,77326.78
2022-11-23T06:23:51.079Z,77332.88
2022-11-23T06:26:18.434Z,77334.91
2022-11-23T06:28:45.793Z,77332.88
2022-11-23T06:31:14.678Z,77334.91
2022-11-23T06:33:41.733Z,77330.84
2022-11-23T06:36:10.614Z,77330.84
2022-11-23T06:38:43.531Z,77328.81
2022-11-23T06:41:15.045Z,77322.72
2022-11-23T06:43:42.170Z,77320.69
2022-11-23T06:46:11.450Z,77324.75
2022-11-23T06:48:43.884Z,77318.66
2022-11-23T06:51:12.416Z,77318.66
2022-11-23T06:53:39.714Z,77320.69
2022-11-23T06:56:09.012Z,77326.78
2022-11-23T06:58:36.264Z,77328.81
2022-11-23T07:01:08.920Z,77338.94
2022-11-23T07:03:49.347Z,77351.13
2022-11-23T07:06:29.259Z,77355.16
2022-11-23T07:08:59.780Z,77355.16
2022-11-23T07:11:43.121Z,77363.28
2022-11-23T07:14:12.118Z,77363.28
2022-11-23T07:16:43.046Z,77355.16
2022-11-23T07:19:11.534Z,77355.16
2022-11-23T07:21:40.090Z,77359.22
2022-11-23T07:24:07.135Z,77363.28
2022-11-23T07:26:35.130Z,77367.34
2022-11-23T07:29:04.038Z,77363.28
2022-11-23T07:31:31.603Z,77363.28
2022-11-23T07:33:58.631Z,77371.38
2022-11-23T07:36:26.800Z,77367.34
2022-11-23T07:38:53.689Z,77359.22
2022-11-23T07:41:21.658Z,77367.34
2022-11-23T07:44:09.687Z,77369.38
2022-11-23T07:46:37.449Z,77371.38
2022-11-23T07:49:04.365Z,77383.56
2022-11-23T07:51:31.778Z,77367.34
2022-11-23T07:53:58.589Z,77355.16
2022-11-23T07:56:25.811Z,77351.13
2022-11-23T07:58:52.943Z,77355.16
2022-11-23T08:01:20.406Z,77355.16
2022-11-23T08:03:48.519Z,77371.38
2022-11-23T08:06:16.657Z,77379.50
2022-11-23T08:08:44.236Z,77373.41
2022-11-23T08:11:14.827Z,77371.38
2022-11-23T08:13:41.786Z,77379.50
2022-11-23T08:16:09.158Z,77371.38
2022-11-23T08:18:36.298Z,77367.34
2022-11-23T08:21:04.601Z,77363.28
2022-11-23T08:23:31.540Z,77371.38
2022-11-23T08:25:59.179Z,77377.47
2022-11-23T08:28:26.596Z,77387.59
2022-11-23T08:30:53.917Z,77399.78
2022-11-23T08:33:20.838Z,77395.72
2022-11-23T08:35:48.123Z,77385.59
2022-11-23T08:38:15.611Z,77383.56
2022-11-23T08:40:42.986Z,77375.44
2022-11-23T08:43:10.283Z,77379.50
2022-11-23T08:45:37.703Z,77375.44
2022-11-23T08:48:05.373Z,77379.50
2022-11-23T08:50:34.608Z,77379.50
2022-11-23T08:53:01.745Z,77383.56
2022-11-23T08:55:29.751Z,77383.56
2022-11-23T08:57:58.417Z,77375.44
2022-11-23T09:00:27.122Z,77403.84
2022-11-23T09:02:54.494Z,77403.84
2022-11-23T09:05:22.003Z,77403.84
2022-11-23T09:07:49.086Z,77399.78
2022-11-23T09:10:19.112Z,77405.84
2022-11-23T09:12:47.348Z,77383.56
2022-11-23T09:15:14.991Z,77383.56
2022-11-23T09:17:42.171Z,77395.72
2022-11-23T09:20:10.503Z,77383.56
2022-11-23T09:22:37.585Z,77375.44
2022-11-23T09:25:05.624Z,77377.47
2022-11-23T09:27:33.015Z,77375.44
2022-11-23T09:30:00.265Z,77379.50
2022-11-23T09:32:27.824Z,77371.38
2022-11-23T09:34:55.266Z,77391.66
2022-11-23T09:37:22.232Z,77377.47
2022-11-23T09:39:49.417Z,77373.41
2022-11-23T09:42:58.175Z,77383.56
2022-11-23T09:45:44.738Z,77375.44
2022-11-23T09:48:37.684Z,77369.38
2022-11-23T09:51:25.377Z,77367.34
2022-11-23T09:53:59.940Z,77345.03
2022-11-23T09:56:33.777Z,77332.88
2022-11-23T09:59:10.578Z,77306.50
2022-11-23T10:01:38.451Z,77310.56
2022-11-23T10:04:07.234Z,77318.66
2022-11-23T10:06:39.221Z,77326.78
2022-11-23T10:09:19.160Z,77330.84
2022-11-23T10:12:23.151Z,77328.81
2022-11-23T10:14:59.609Z,77338.94
2022-11-23T10:17:36.057Z,77336.91
2022-11-23T10:20:28.047Z,77347.06
2022-11-23T10:22:55.234Z,77359.22
2022-11-23T10:25:24.419Z,77377.47
2022-11-23T10:27:58.491Z,77357.19
2022-11-23T10:30:25.859Z,77351.13
2022-11-23T10:33:10.285Z,77347.06
2022-11-23T10:35:38.402Z,77334.91
2022-11-23T10:38:18.739Z,77326.78
2022-11-23T10:41:01.993Z,77324.75
2022-11-23T10:43:38.368Z,77318.66
2022-11-23T10:46:34.924Z,77328.81
2022-11-23T10:49:22.358Z,77316.66
2022-11-23T10:51:57.738Z,77326.78
2022-11-23T10:54:31.213Z,77338.94
2022-11-23T10:57:00.851Z,77324.75
2022-11-23T10:59:38.963Z,77320.69
2022-11-23T11:02:21.694Z,77296.38
2022-11-23T11:04:55.851Z,77286.22
2022-11-23T11:07:30.632Z,77282.19
2022-11-23T11:10:00.128Z,77265.97
2022-11-23T11:12:29.514Z,77261.91
2022-11-23T11:15:12.439Z,77270.00
2022-11-23T11:17:59.343Z,77265.97
2022-11-23T11:20:31.568Z,77282.19
2022-11-23T11:23:05.269Z,77278.13
2022-11-23T11:25:37.567Z,77286.22
2022-11-23T11:28:18.455Z,77286.22
2022-11-23T11:31:24.181Z,77286.22
2022-11-23T11:34:25.138Z,77286.22
2022-11-23T11:37:11.237Z,77282.19
2022-11-23T11:40:19.590Z,77270.00
2022-11-23T11:42:53.265Z,77253.78
2022-11-23T11:45:28.707Z,77233.53
2022-11-23T11:48:04.368Z,77241.63
2022-11-23T11:50:38.380Z,77245.69
2022-11-23T11:53:13.588Z,77249.75
2022-11-23T11:56:11.888Z,77257.84
2022-11-23T11:58:44.926Z,77245.69
2022-11-23T12:01:26.193Z,77245.69
2022-11-23T12:04:05.748Z,77253.78
2022-11-23T12:06:54.600Z,77257.84
2022-11-23T12:09:28.401Z,77249.75
2022-11-23T12:11:55.786Z,77255.81
2022-11-23T12:14:23.074Z,77257.84
2022-11-23T12:20:16.444Z,77274.06
2022-11-23T12:22:59.600Z,77278.13
2022-11-23T12:25:37.387Z,77284.22
2022-11-23T12:28:41.528Z,77294.34
2022-11-23T12:31:18.406Z,77294.34
2022-11-23T12:33:56.787Z,77286.22
2022-11-23T12:36:57.348Z,77286.22
2022-11-23T12:39:57.902Z,77282.19
2022-11-23T12:42:38.985Z,77278.13
2022-11-23T12:45:41.331Z,77265.97
2022-11-23T12:48:11.646Z,77257.84
2022-11-23T12:50:47.504Z,77255.81
2022-11-23T12:53:39.529Z,77245.69
2022-11-23T12:56:37.395Z,77261.91
2022-11-23T12:59:08.472Z,77265.97
2022-11-23T13:01:39.669Z,77270.00
2022-11-23T13:04:10.160Z,77265.97
2022-11-23T13:09:52.358Z,77239.59
2022-11-23T13:12:40.167Z,77245.69
2022-11-23T13:15:34.741Z,77267.97
2022-11-23T13:18:11.423Z,77253.78
2022-11-23T13:20:51.586Z,77261.91
2022-11-23T13:23:21.729Z,77265.97
2022-11-23T13:26:16.646Z,77265.97
2022-11-23T13:28:45.101Z,77278.13
2022-11-23T13:31:16.347Z,77290.28
2022-11-23T13:33:45.752Z,77296.38
2022-11-23T13:37:04.302Z,77302.44
2022-11-23T13:40:01.008Z,77314.63
2022-11-23T13:42:32.862Z,77322.72
2022-11-23T13:45:21.692Z,77324.75
2022-11-23T13:48:05.720Z,77314.63
2022-11-23T13:50:33.566Z,77308.53
2022-11-23T13:53:02.288Z,77294.34
2022-11-23T13:55:38.255Z,77294.34
2022-11-23T13:58:23.918Z,77292.31
2022-11-23T14:00:59.163Z,77294.34
2022-11-23T14:03:47.946Z,77300.44
2022-11-23T14:06:24.128Z,77300.44
2022-11-23T14:09:05.800Z,77298.41
2022-11-23T14:11:42.218Z,77302.44
2022-11-23T14:14:18.932Z,77322.72
2022-11-23T14:17:17.795Z,77306.50
2022-11-23T14:20:14.293Z,77314.63
2022-11-23T14:22:56.647Z,77326.78
2022-11-23T14:25:49.335Z,77326.78
2022-11-23T14:28:22.631Z,77330.84
2022-11-23T14:31:03.608Z,77334.91
2022-11-23T14:34:12.883Z,77351.13
2022-11-23T14:36:57.000Z,77343.00
2022-11-23T14:39:42.455Z,77334.91
2022-11-23T14:42:17.112Z,77338.94
2022-11-23T14:44:45.028Z,77347.06
2022-11-23T14:47:12.470Z,77349.09
2022-11-23T14:49:50.952Z,77355.16
2022-11-23T14:52:38.316Z,77363.28
2022-11-23T14:55:06.609Z,77367.34
2022-11-23T14:57:43.110Z,77375.44
2022-11-23T15:00:35.558Z,77375.44
2022-11-23T15:03:48.846Z,77379.50
2022-11-23T15:06:13.508Z,77379.50
2022-11-23T15:08:57.255Z,77377.47
2022-11-23T15:11:29.075Z,77383.56
2022-11-23T15:14:02.172Z,77395.72
2022-11-23T15:16:30.606Z,77397.75
2022-11-23T15:18:58.118Z,77391.66
2022-11-23T15:21:28.252Z,77387.59
2022-11-23T15:23:58.502Z,77385.59
2022-11-23T15:29:36.156Z,77391.66
2022-11-23T15:32:29.381Z,77391.66
2022-11-23T15:34:55.057Z,77407.88
2022-11-23T15:37:24.425Z,77407.88
2022-11-23T15:39:53.852Z,77411.94
2022-11-23T15:42:24.511Z,77411.94
2022-11-23T15:44:54.741Z,77403.84
2022-11-23T15:47:27.834Z,77399.78
2022-11-23T15:50:02.100Z,77416.00
2022-11-23T15:52:37.305Z,77407.88
2022-11-23T15:55:12.820Z,77411.94
2022-11-23T15:57:41.775Z,77420.06
2022-11-23T16:00:21.222Z,77407.88
2022-11-23T16:02:48.441Z,77407.88
2022-11-23T16:05:19.882Z,77411.94
2022-11-23T16:07:52.784Z,77422.06
2022-11-23T16:10:30.752Z,77424.09
2022-11-23T16:13:03.004Z,77424.09
2022-11-23T16:15:38.605Z,77432.22
2022-11-23T16:18:25.185Z,77440.31
2022-11-23T16:20:56.895Z,77442.34
2022-11-23T16:23:27.551Z,77428.16
2022-11-23T16:26:01.665Z,77420.06
2022-11-23T16:28:33.980Z,77411.94
2022-11-23T16:31:01.909Z,77413.97
2022-11-23T16:33:30.521Z,77407.88
2022-11-23T16:35:57.998Z,77411.94
2022-11-23T16:38:25.885Z,77424.09
2022-11-23T16:40:53.164Z,77424.09
2022-11-23T16:43:20.249Z,77434.25
2022-11-23T16:45:51.297Z,77448.44
2022-11-23T16:48:24.521Z,77448.44
2022-11-23T16:50:56.115Z,77452.50
2022-11-23T16:53:23.958Z,77448.44
2022-11-23T16:55:55.726Z,77444.38
2022-11-23T16:58:22.545Z,77444.38
2022-11-23T17:00:50.216Z,77448.44
2022-11-23T17:03:18.821Z,77452.50
2022-11-23T17:05:47.840Z,77456.53
2022-11-23T17:08:21.539Z,77460.59
2022-11-23T17:10:51.418Z,77470.75
2022-11-23T17:13:29.008Z,77480.88
2022-11-23T17:15:56.579Z,77476.81
2022-11-23T17:18:23.465Z,77482.91
2022-11-23T17:20:50.938Z,77484.94
2022-11-23T17:23:18.353Z,77482.91
2022-11-23T17:25:45.684Z,77476.81
2022-11-23T17:28:21.297Z,77468.72
2022-11-23T17:30:49.013Z,77464.66
2022-11-23T17:33:16.102Z,77466.69
2022-11-23T17:35:43.523Z,77462.63
2022-11-23T17:38:19.355Z,77466.69
2022-11-23T17:40:46.703Z,77464.66
2022-11-23T17:43:14.544Z,77464.66
2022-11-23T17:45:43.840Z,77466.69
2022-11-23T17:48:12.778Z,77468.72
2022-11-23T17:50:40.076Z,77470.75
2022-11-23T17:53:06.915Z,77478.84
2022-11-23T17:55:34.145Z,77476.81
2022-11-23T17:58:01.040Z,77476.81
2022-11-23T18:00:29.781Z,77480.88
2022-11-23T18:02:56.968Z,77472.78
2022-11-23T18:05:24.486Z,77470.75
2022-11-23T18:07:52.008Z,77470.75
2022-11-23T18:10:19.427Z,77472.78
2022-11-23T18:12:47.581Z,77472.78
2022-11-23T18:15:15.403Z,77478.84
2022-11-23T18:17:42.530Z,77480.88
2022-11-23T18:20:10.394Z,77482.91
2022-11-23T18:22:37.743Z,77486.97
2022-11-23T18:25:05.244Z,77484.94
2022-11-23T18:27:32.316Z,77482.91
2022-11-23T18:29:59.595Z,77476.81
2022-11-23T18:32:26.484Z,77468.72
2022-11-23T18:34:53.695Z,77468.72
2022-11-23T18:37:20.648Z,77476.81
2022-11-23T18:39:47.833Z,77486.97
2022-11-23T18:42:14.681Z,77493.03
2022-11-23T18:44:41.787Z,77499.13
2022-11-23T18:47:08.718Z,77493.03
2022-11-23T18:49:36.213Z,77501.16
2022-11-23T18:52:03.281Z,77509.25
2022-11-23T18:54:30.595Z,77507.25
2022-11-23T18:56:57.574Z,77507.25
2022-11-23T19:02:13.244Z,77521.44
2022-11-23T19:04:40.537Z,77517.38
2022-11-23T19:07:07.663Z,77513.31
2022-11-23T19:09:35.680Z,77513.31
2022-11-23T19:12:02.920Z,77517.38
2022-11-23T19:14:30.178Z,77521.44
2022-11-23T19:16:57.849Z,77517.38
2022-11-23T19:19:26.007Z,77515.34
2022-11-23T19:21:53.096Z,77517.38
2022-11-23T19:24:20.386Z,77513.31
2022-11-23T19:26:47.483Z,77507.25
2022-11-23T19:29:14.709Z,77509.25
2022-11-23T19:31:41.771Z,77517.38
2022-11-23T19:34:10.878Z,77521.44
2022-11-23T19:36:37.831Z,77525.47
2022-11-23T19:39:06.168Z,77533.59
2022-11-23T19:41:33.213Z,77537.66
2022-11-23T19:44:01.597Z,77545.75
2022-11-23T19:46:30.662Z,77549.81
2022-11-23T19:48:59.193Z,77551.84
2022-11-23T19:51:27.162Z,77553.88
2022-11-23T19:53:57.136Z,77557.94
2022-11-23T19:56:26.087Z,77557.94
2022-11-23T19:58:56.048Z,77561.97
2022-11-23T20:01:24.457Z,77570.09
2022-11-23T20:03:54.982Z,77566.03
2022-11-23T20:06:27.158Z,77559.97
2022-11-23T20:09:00.135Z,77576.19
2022-11-23T20:11:30.368Z,77574.16
2022-11-23T20:13:58.179Z,77582.25
2022-11-23T20:16:27.487Z,77594.44
2022-11-23T20:18:57.238Z,77582.25
2022-11-23T20:21:24.773Z,77590.38
2022-11-23T20:24:13.105Z,77574.16
2022-11-23T20:26:41.900Z,77584.28
2022-11-23T20:29:09.991Z,77588.34
2022-11-23T20:31:37.595Z,77582.25
2022-11-23T20:34:07.804Z,77582.25
2022-11-23T20:36:38.171Z,77586.31
2022-11-23T20:39:09.598Z,77584.28
2022-11-23T20:41:37.653Z,77584.28
2022-11-23T20:44:10.454Z,77590.38
2022-11-23T20:47:00.516Z,77594.44
2022-11-23T20:49:24.737Z,77586.31
2022-11-23T20:51:52.170Z,77590.38
2022-11-23T20:54:19.620Z,77594.44
2022-11-23T20:56:46.588Z,77590.38
2022-11-23T20:59:13.831Z,77596.44
2022-11-23T21:01:41.008Z,77614.69
2022-11-23T21:04:08.980Z,77630.94
2022-11-23T21:06:39.427Z,77634.97
2022-11-23T21:09:11.310Z,77639.03
2022-11-23T21:11:57.405Z,77634.97
2022-11-23T21:14:30.373Z,77641.06
2022-11-23T21:16:59.601Z,77630.94
2022-11-23T21:19:37.784Z,77634.97
2022-11-23T21:22:13.377Z,77630.94
2022-11-23T21:24:41.085Z,77634.97
2022-11-23T21:27:12.144Z,77643.09
2022-11-23T21:29:39.688Z,77643.09
2022-11-23T21:32:06.597Z,77632.94
2022-11-23T21:34:34.286Z,77639.03
2022-11-23T21:37:01.870Z,77639.03
2022-11-23T21:39:30.988Z,77641.06
2022-11-23T21:41:58.051Z,77632.94
2022-11-23T21:44:25.168Z,77630.94
2022-11-23T21:46:52.322Z,77634.97
2022-11-23T21:49:19.610Z,77634.97
2022-11-23T21:51:46.755Z,77639.03
2022-11-23T21:54:15.996Z,77643.09
2022-11-23T21:56:45.075Z,77637.00
2022-11-23T21:59:12.889Z,77643.09
2022-11-23T22:01:40.757Z,77634.97
2022-11-23T22:04:11.500Z,77632.94
2022-11-23T22:06:40.189Z,77622.81
2022-11-23T22:09:09.681Z,77630.94
2022-11-23T22:11:39.598Z,77632.94
2022-11-23T22:14:09.759Z,77634.97
2022-11-23T22:16:39.319Z,77634.97
2022-11-23T22:19:07.093Z,77626.88
2022-11-23T22:21:36.701Z,77622.81
2022-11-23T22:24:05.484Z,77622.81
2022-11-23T22:26:32.955Z,77618.75
2022-11-23T22:29:02.626Z,77630.94
2022-11-23T22:31:33.142Z,77630.94
2022-11-23T22:34:02.225Z,77639.03
2022-11-23T22:36:30.083Z,77649.19
2022-11-23T22:39:01.885Z,77643.09
2022-11-23T22:41:30.773Z,77634.97
2022-11-23T22:43:58.006Z,77647.16
2022-11-23T22:46:25.764Z,77634.97
2022-11-23T22:48:54.090Z,77639.03
2022-11-23T22:51:23.639Z,77630.94
2022-11-23T22:53:56.098Z,77639.03
2022-11-23T22:56:23.093Z,77643.09
2022-11-23T22:58:50.473Z,77643.09
2022-11-23T23:01:19.622Z,77647.16
2022-11-23T23:03:47.714Z,77651.19
2022-11-23T23:06:20.233Z,77643.09
2022-11-23T23:08:52.221Z,77645.13
2022-11-23T23:11:19.204Z,77647.16
2022-11-23T23:13:46.900Z,77643.09
2022-11-23T23:16:14.530Z,77639.03
2022-11-23T23:18:42.751Z,77645.13
2022-11-23T23:21:15.155Z,77647.16
2022-11-23T23:23:44.741Z,77653.22
2022-11-23T23:26:13.702Z,77651.19
2022-11-23T23:28:41.058Z,77647.16
2022-11-23T23:31:10.985Z,77651.19
2022-11-23T23:33:38.739Z,77653.22
2022-11-23T23:36:11.745Z,77659.31
2022-11-23T23:38:40.663Z,77655.25
2022-11-23T23:41:09.066Z,77653.22
2022-11-23T23:43:36.938Z,77655.25
2022-11-23T23:46:09.431Z,77659.31
2022-11-23T23:48:38.613Z,77651.19
2022-11-23T23:51:16.332Z,77647.16
2022-11-23T23:53:45.250Z,77641.06
2022-11-23T23:56:15.118Z,77647.16
2022-11-23T23:58:42.937Z,77651.19
